Time;durP1;ratioP1;P1;durP2;ratioP2;P2;SDS_P1;SDS_P2;PMS_P1;PMS_P2;Temp;Humidity;BMP_temperature;BMP_pressure;BME280_temperature;BME280_humidity;BME280_pressure;Samples;Min_cycle;Max_cycle;Signal;HPM_P1;HPM_P2
2024/01/30 00:00:50;;;;;;;;;;;;;;;7.82;100.00;102590.41;5112049;28;19915;-76
2024/01/30 00:03:15;;;;;;;;;;;;;;;7.80;100.00;102585.13;5111196;28;20289;-76
2024/01/30 00:05:41;;;;;;;;;;;;;;;7.79;100.00;102585.94;5111864;28;19916;-76
2024/01/30 00:08:06;;;;;;;;;;;;;;;7.78;100.00;102589.34;5094503;28;19920;-76
2024/01/30 00:10:31;;;;;;;;;;;;;;;7.77;100.00;102584.94;5111828;28;19915;-76
2024/01/30 00:12:56;;;;;;;;;;;;;;;7.75;100.00;102585.63;5112778;28;19998;-76
2024/01/30 00:15:22;;;;;;;;;;;;;;;7.74;100.00;102586.47;5100734;28;19965;-76
2024/01/30 00:17:48;;;;;;;;;;;;;;;7.73;100.00;102582.94;5112599;28;19911;-76
2024/01/30 00:20:13;;;;;;;;;;;;;;;7.72;100.00;102590.63;5093539;28;20320;-76
2024/01/30 00:22:38;;;;;;;;;;;;;;;7.71;100.00;102581.97;5094044;28;19912;-76
2024/01/30 00:25:04;;;;;;;;;;;;;;;7.69;100.00;102583.56;5105815;28;19990;-76
2024/01/30 00:27:29;;;;;;;;;;;;;;;7.68;100.00;102579.19;5110670;28;19912;-76
2024/01/30 00:29:54;;;;;;;;;;;;;;;7.66;100.00;102584.28;5112585;28;19912;-76
2024/01/30 00:32:20;;;;;;;;;;;;;;;7.66;100.00;102575.56;5111548;28;19962;-76
2024/01/30 00:34:45;;;;;;;;;;;;;;;7.63;100.00;102576.31;5111240;28;20049;-76
2024/01/30 00:37:10;;;;;;;;;;;;;;;7.62;100.00;102581.41;5090467;28;20406;-76
2024/01/30 00:39:36;;;;;;;;;;;;;;;7.60;100.00;102575.19;5111970;28;19920;-76
2024/01/30 00:42:01;;;;;;;;;;;;;;;7.58;100.00;102569.03;5111454;28;19989;-76
2024/01/30 00:44:26;;;;;;;;;;;;;;;7.56;100.00;102568.94;5111257;28;19923;-76
2024/01/30 00:46:51;;;;;;;;;;;;;;;7.55;100.00;102571.44;5079528;28;19916;-76
2024/01/30 00:49:17;;;;;;;;;;;;;;;7.53;100.00;102570.41;5093768;28;20460;-76
2024/01/30 00:51:42;;;;;;;;;;;;;;;7.49;100.00;102567.63;5111368;28;19916;-76
2024/01/30 00:54:08;;;;;;;;;;;;;;;7.48;100.00;102565.81;5111730;28;19995;-76
2024/01/30 00:56:33;;;;;;;;;;;;;;;7.47;100.00;102558.88;5110707;28;20343;-76
2024/01/30 00:58:58;;;;;;;;;;;;;;;7.47;100.00;102569.25;5093350;28;20014;-76
2024/01/30 01:01:23;;;;;;;;;;;;;;;7.45;100.00;102562.16;5110842;28;20563;-76
2024/01/30 01:03:48;;;;;;;;;;;;;;;7.44;100.00;102565.53;5093323;28;19912;-76
2024/01/30 01:06:14;;;;;;;;;;;;;;;7.42;100.00;102562.84;5109725;28;20262;-76
2024/01/30 01:08:39;;;;;;;;;;;;;;;7.41;100.00;102565.34;5111519;28;20331;-76
2024/01/30 01:11:04;;;;;;;;;;;;;;;7.40;100.00;102567.03;5111558;28;19912;-76
2024/01/30 01:13:29;;;;;;;;;;;;;;;7.39;100.00;102551.38;5110081;28;19912;-76
2024/01/30 01:15:55;;;;;;;;;;;;;;;7.38;100.00;102560.84;5099828;28;19930;-76
2024/01/30 01:18:20;;;;;;;;;;;;;;;7.38;100.00;102554.78;5110078;28;19920;-76
2024/01/30 01:20:45;;;;;;;;;;;;;;;7.36;100.00;102557.28;5093238;28;19918;-76
2024/01/30 01:23:11;;;;;;;;;;;;;;;7.36;100.00;102549.50;5110807;28;19915;-76
2024/01/30 01:25:36;;;;;;;;;;;;;;;7.35;100.00;102547.69;5111262;28;19990;-76
2024/01/30 01:28:01;;;;;;;;;;;;;;;7.35;100.00;102550.28;5100726;28;19908;-76
2024/01/30 01:30:28;;;;;;;;;;;;;;;7.35;100.00;102550.28;5091638;28;19912;-76
2024/01/30 01:32:57;;;;;;;;;;;;;;;7.36;100.00;102549.50;5092365;28;19916;-76
2024/01/30 01:35:24;;;;;;;;;;;;;;;7.35;100.00;102550.28;5111188;28;19912;-76
2024/01/30 01:37:54;;;;;;;;;;;;;;;7.36;100.00;102546.91;5086665;28;19955;-76
2024/01/30 01:40:20;;;;;;;;;;;;;;;7.38;100.00;102541.81;5109611;28;19916;-76
2024/01/30 01:42:45;;;;;;;;;;;;;;;7.38;100.00;102542.69;5111326;28;19912;-76
2024/01/30 01:45:10;;;;;;;;;;;;;;;7.39;100.00;102541.91;5110527;28;19964;-76
2024/01/30 01:47:36;;;;;;;;;;;;;;;7.41;100.00;102537.69;5109971;28;19939;-76
2024/01/30 01:50:01;;;;;;;;;;;;;;;7.42;100.00;102531.72;5106797;28;19930;-76
2024/01/30 01:52:26;;;;;;;;;;;;;;;7.43;100.00;102533.53;5111359;28;20631;-76
2024/01/30 01:54:52;;;;;;;;;;;;;;;7.44;100.00;102537.91;5109821;28;19920;-76
2024/01/30 01:57:17;;;;;;;;;;;;;;;7.46;100.00;102530.25;5110560;28;19982;-76
2024/01/30 01:59:42;;;;;;;;;;;;;;;7.47;100.00;102527.75;5109350;28;19922;-76
2024/01/30 02:02:11;;;;;;;;;;;;;;;7.48;100.00;102526.91;5100743;28;20001;-76
2024/01/30 02:04:36;;;;;;;;;;;;;;;7.49;100.00;102527.84;5092142;28;19920;-76
2024/01/30 02:07:01;;;;;;;;;;;;;;;7.49;100.00;102517.47;5092778;28;20335;-76
2024/01/30 02:09:26;;;;;;;;;;;;;;;7.49;100.00;102523.53;5106162;28;19916;-76
2024/01/30 02:11:52;;;;;;;;;;;;;;;7.51;100.00;102525.34;5110906;28;19916;-76
2024/01/30 02:14:17;;;;;;;;;;;;;;;7.51;100.00;102526.22;5110841;28;19915;-76
2024/01/30 02:16:42;;;;;;;;;;;;;;;7.52;100.00;102520.25;5105982;28;19963;-76
2024/01/30 02:19:07;;;;;;;;;;;;;;;7.52;100.00;102524.50;5104455;28;19966;-76
2024/01/30 02:21:33;;;;;;;;;;;;;;;7.52;100.00;102516.72;5107905;28;19920;-76
2024/01/30 02:23:58;;;;;;;;;;;;;;;7.52;100.00;102521.91;5092486;28;20361;-76
2024/01/30 02:26:23;;;;;;;;;;;;;;;7.51;100.00;102523.63;5112036;28;19919;-76
2024/01/30 02:28:48;;;;;;;;;;;;;;;7.52;100.00;102522.84;5114411;28;19916;-76
2024/01/30 02:31:14;;;;;;;;;;;;;;;7.53;100.00;102524.63;5114441;28;20013;-76
2024/01/30 02:33:39;;;;;;;;;;;;;;;7.55;100.00;102522.13;5096298;28;20957;-76
2024/01/30 02:36:04;;;;;;;;;;;;;;;7.57;100.00;102517.94;5110435;28;21363;-76
2024/01/30 02:38:30;;;;;;;;;;;;;;;7.56;100.00;102518.72;5113706;28;19977;-76
2024/01/30 02:40:56;;;;;;;;;;;;;;;7.56;100.00;102514.44;5104361;28;19916;-76
2024/01/30 02:43:21;;;;;;;;;;;;;;;7.56;100.00;102517.03;5113849;28;19912;-76
2024/01/30 02:45:46;;;;;;;;;;;;;;;7.55;100.00;102515.25;5113668;28;19938;-76
2024/01/30 02:48:12;;;;;;;;;;;;;;;7.56;100.00;102513.53;5108204;28;19916;-76
2024/01/30 02:50:37;;;;;;;;;;;;;;;7.55;100.00;102517.84;5114461;28;19912;-76
2024/01/30 02:53:02;;;;;;;;;;;;;;;7.56;100.00;102513.53;5114118;28;19987;-76
2024/01/30 02:55:27;;;;;;;;;;;;;;;7.56;100.00;102513.53;5113965;28;19973;-76
2024/01/30 02:57:53;;;;;;;;;;;;;;;7.54;100.00;102510.84;5105894;28;19916;-76
2024/01/30 03:00:19;;;;;;;;;;;;;;;7.56;100.00;102505.75;5095845;28;19912;-76
2024/01/30 03:02:44;;;;;;;;;;;;;;;7.56;100.00;102509.25;5095830;28;20270;-76
2024/01/30 03:05:10;;;;;;;;;;;;;;;7.55;100.00;102515.25;5114017;28;19918;-76
2024/01/30 03:07:35;;;;;;;;;;;;;;;7.58;100.00;102511.94;5112590;28;19916;-76
2024/01/30 03:10:00;;;;;;;;;;;;;;;7.56;100.00;102503.16;5114097;28;19915;-76
2024/01/30 03:12:25;;;;;;;;;;;;;;;7.57;100.00;102504.97;5113842;28;19955;-76
2024/01/30 03:14:51;;;;;;;;;;;;;;;7.56;100.00;102505.75;5113908;28;20262;-76
2024/01/30 03:17:17;;;;;;;;;;;;;;;7.56;100.00;102492.78;5110968;28;19915;-76
2024/01/30 03:19:42;;;;;;;;;;;;;;;7.59;100.00;102490.38;5105619;28;19923;-76
2024/01/30 03:22:07;;;;;;;;;;;;;;;7.59;100.00;102482.59;5113734;28;19915;-76
2024/01/30 03:24:33;;;;;;;;;;;;;;;7.60;100.00;102485.31;5113392;28;19912;-76
2024/01/30 03:26:58;;;;;;;;;;;;;;;7.60;100.00;102481.81;5113543;28;20351;-76
2024/01/30 03:29:23;;;;;;;;;;;;;;;7.60;100.00;102487.91;5105528;28;19924;-76
2024/01/30 03:31:48;;;;;;;;;;;;;;;7.61;100.00;102487.09;5102236;28;19916;-76
2024/01/30 03:34:14;;;;;;;;;;;;;;;7.60;100.00;102482.72;5095111;28;19916;-76
2024/01/30 03:36:39;;;;;;;;;;;;;;;7.60;100.00;102474.94;5113362;28;19911;-76
2024/01/30 03:39:04;;;;;;;;;;;;;;;7.61;100.00;102475.81;5080253;28;19920;-76
2024/01/30 03:41:29;;;;;;;;;;;;;;;7.59;100.00;102474.81;5072765;28;19912;-76
2024/01/30 03:43:55;;;;;;;;;;;;;;;7.59;100.00;102480.91;5072690;28;19913;-76
2024/01/30 03:46:20;;;;;;;;;;;;;;;7.59;100.00;102482.59;5071229;28;19919;-76
2024/01/30 03:48:46;;;;;;;;;;;;;;;7.56;100.00;102474.63;5072304;28;19920;-76
2024/01/30 03:51:15;;;;;;;;;;;;;;;7.56;100.00;102482.41;5074739;28;19917;-76
2024/01/30 03:53:41;;;;;;;;;;;;;;;7.55;100.00;102485.81;5072510;28;19920;-76
2024/01/30 03:56:07;;;;;;;;;;;;;;;7.56;100.00;102492.78;5072221;28;20370;-76
2024/01/30 03:58:32;;;;;;;;;;;;;;;7.55;100.00;102491.91;5072361;28;19927;-76
2024/01/30 04:00:57;;;;;;;;;;;;;;;7.58;100.00;102493.78;5083254;28;20461;-76
2024/01/30 04:03:22;;;;;;;;;;;;;;;7.58;100.00;102493.78;5091255;28;19969;-76
2024/01/30 04:05:48;;;;;;;;;;;;;;;7.59;100.00;102492.97;5064982;28;19923;-76
2024/01/30 04:08:13;;;;;;;;;;;;;;;7.59;100.00;102495.56;5092502;28;19938;-76
2024/01/30 04:10:38;;;;;;;;;;;;;;;7.60;100.00;102489.59;5083413;28;20003;-76
2024/01/30 04:13:03;;;;;;;;;;;;;;;7.61;100.00;102483.59;5078125;28;19959;-76
2024/01/30 04:15:29;;;;;;;;;;;;;;;7.62;100.00;102482.81;5070404;28;20262;-76
2024/01/30 04:17:57;;;;;;;;;;;;;;;7.62;100.00;102480.22;5072006;28;20290;-76
2024/01/30 04:20:22;;;;;;;;;;;;;;;7.63;100.00;102480.31;5071634;28;19917;-76
2024/01/30 04:22:47;;;;;;;;;;;;;;;7.65;100.00;102483.00;5090965;28;19947;-76
2024/01/30 04:25:13;;;;;;;;;;;;;;;7.65;100.00;102475.22;5091642;28;19912;-76
2024/01/30 04:27:38;;;;;;;;;;;;;;;7.69;100.00;102478.88;5084380;28;20062;-76
2024/01/30 04:30:04;;;;;;;;;;;;;;;7.68;100.00;102470.22;5088728;28;20289;-76
2024/01/30 04:32:29;;;;;;;;;;;;;;;7.69;100.00;102472.00;5079046;28;20309;-76
2024/01/30 04:34:54;;;;;;;;;;;;;;;7.70;100.00;102463.41;5070207;28;19913;-76
2024/01/30 04:37:20;;;;;;;;;;;;;;;7.72;100.00;102464.41;5084002;28;19912;-76
2024/01/30 04:39:45;;;;;;;;;;;;;;;7.73;100.00;102455.81;5102768;28;19920;-76
2024/01/30 04:42:10;;;;;;;;;;;;;;;7.75;100.00;102454.22;5111459;28;20408;-76
2024/01/30 04:44:35;;;;;;;;;;;;;;;7.79;100.00;102451.00;5112101;28;19911;-76
2024/01/30 04:47:01;;;;;;;;;;;;;;;7.81;100.00;102446.78;5111987;28;19912;-76
2024/01/30 04:49:26;;;;;;;;;;;;;;;7.84;100.00;102439.19;5118809;27;19922;-76
2024/01/30 04:51:52;;;;;;;;;;;;;;;7.87;100.00;102437.59;5111106;28;19917;-76
2024/01/30 04:54:17;;;;;;;;;;;;;;;7.91;100.00;102434.41;5111898;28;19920;-76
2024/01/30 04:56:42;;;;;;;;;;;;;;;7.92;100.00;102441.34;5111874;28;20541;-76
2024/01/30 04:59:08;;;;;;;;;;;;;;;7.93;100.00;102440.56;5108272;28;19935;-76
2024/01/30 05:01:33;;;;;;;;;;;;;;;7.96;100.00;102451.13;5103919;28;19919;-76
2024/01/30 05:03:59;;;;;;;;;;;;;;;7.97;100.00;102451.22;5111868;28;19946;-76
2024/01/30 05:06:27;;;;;;;;;;;;;;;7.97;100.00;102442.53;5093544;28;19923;-76
2024/01/30 05:08:52;;;;;;;;;;;;;;;8.00;100.00;102447.91;5111160;28;19911;-76
2024/01/30 05:11:18;;;;;;;;;;;;;;;8.01;100.00;102441.94;5086422;28;20061;-76
2024/01/30 05:13:43;;;;;;;;;;;;;;;8.01;100.00;102452.31;5110801;28;19915;-76
2024/01/30 05:16:09;;;;;;;;;;;;;;;8.01;100.00;102452.31;5093224;28;20406;-76
2024/01/30 05:18:34;;;;;;;;;;;;;;;8.01;100.00;102453.19;5111276;28;20274;-76
2024/01/30 05:20:59;;;;;;;;;;;;;;;8.00;100.00;102450.50;5101714;28;19922;-76
2024/01/30 05:23:25;;;;;;;;;;;;;;;8.00;100.00;102451.41;5110613;28;19924;-76
2024/01/30 05:25:50;;;;;;;;;;;;;;;8.01;100.00;102452.31;5092972;28;19916;-76
2024/01/30 05:28:15;;;;;;;;;;;;;;;8.00;100.00;102445.31;5111178;28;20015;-76
2024/01/30 05:30:40;;;;;;;;;;;;;;;8.01;100.00;102449.72;5085145;28;19922;-76
2024/01/30 05:33:06;;;;;;;;;;;;;;;8.01;100.00;102447.13;5125769;27;20343;-76
2024/01/30 05:35:31;;;;;;;;;;;;;;;8.03;100.00;102448.09;5093087;28;20413;-76
2024/01/30 05:37:56;;;;;;;;;;;;;;;8.03;100.00;102455.88;5092917;28;19916;-76
2024/01/30 05:40:22;;;;;;;;;;;;;;;8.03;100.00;102449.81;5110604;28;20381;-76
2024/01/30 05:42:47;;;;;;;;;;;;;;;8.03;100.00;102450.69;5091739;28;20392;-76
2024/01/30 05:45:12;;;;;;;;;;;;;;;8.03;100.00;102442.03;5111063;28;20584;-76
2024/01/30 05:47:39;;;;;;;;;;;;;;;8.04;100.00;102452.50;5111181;28;20018;-76
2024/01/30 05:50:04;;;;;;;;;;;;;;;8.06;100.00;102456.06;5110241;28;20335;-76
2024/01/30 05:52:30;;;;;;;;;;;;;;;8.07;100.00;102459.56;5096036;28;19923;-76
2024/01/30 05:54:55;;;;;;;;;;;;;;;8.07;100.00;102452.66;5107054;28;20288;-76
2024/01/30 05:57:20;;;;;;;;;;;;;;;8.08;100.00;102456.16;5092873;28;19912;-76
2024/01/30 05:59:47;;;;;;;;;;;;;;;8.07;100.00;102446.59;5111314;28;19911;-76
2024/01/30 06:02:12;;;;;;;;;;;;;;;8.08;100.00;102449.28;5113280;28;20396;-76
2024/01/30 06:04:38;;;;;;;;;;;;;;;8.10;100.00;102454.56;5109434;28;19912;-76
2024/01/30 06:07:04;;;;;;;;;;;;;;;8.13;100.00;102457.34;5115282;28;20362;-76
2024/01/30 06:09:29;;;;;;;;;;;;;;;8.13;100.00;102452.16;5096728;28;19911;-76
2024/01/30 06:11:55;;;;;;;;;;;;;;;8.14;100.00;102453.91;5090948;28;19920;-76
2024/01/30 06:14:20;;;;;;;;;;;;;;;8.15;100.00;102455.72;5109520;28;20449;-76
2024/01/30 06:16:45;;;;;;;;;;;;;;;8.14;100.00;102454.81;5096761;28;19951;-76
2024/01/30 06:19:10;;;;;;;;;;;;;;;8.15;100.00;102456.63;5114906;28;19922;-76
2024/01/30 06:21:36;;;;;;;;;;;;;;;8.16;100.00;102454.91;5113931;28;19923;-76
2024/01/30 06:24:02;;;;;;;;;;;;;;;8.18;100.00;102459.41;5113959;28;19916;-76
2024/01/30 06:26:27;;;;;;;;;;;;;;;8.18;100.00;102454.22;5114409;28;20360;-76
2024/01/30 06:28:52;;;;;;;;;;;;;;;8.18;100.00;102454.22;5114837;28;19914;-76
2024/01/30 06:31:18;;;;;;;;;;;;;;;8.21;100.00;102465.56;5096295;28;19998;-76
2024/01/30 06:33:43;;;;;;;;;;;;;;;8.21;100.00;102469.06;5097901;28;20003;-76
2024/01/30 06:36:08;;;;;;;;;;;;;;;8.24;100.00;102468.34;5114537;28;19917;-76
2024/01/30 06:38:33;;;;;;;;;;;;;;;8.24;100.00;102469.25;5092635;28;19958;-76
2024/01/30 06:40:59;;;;;;;;;;;;;;;8.24;100.00;102469.25;5094218;28;19916;-76
2024/01/30 06:43:24;;;;;;;;;;;;;;;8.25;100.00;102478.81;5081137;28;19917;-76
2024/01/30 06:45:50;;;;;;;;;;;;;;;8.27;100.00;102476.31;5090008;28;19938;-76
2024/01/30 06:48:15;;;;;;;;;;;;;;;8.28;100.00;102472.91;5093975;28;19959;-76
2024/01/30 06:50:40;;;;;;;;;;;;;;;8.30;100.00;102466.13;5093874;28;19997;-76
2024/01/30 06:53:06;;;;;;;;;;;;;;;8.31;100.00;102465.31;5088820;28;19934;-76
2024/01/30 06:55:31;;;;;;;;;;;;;;;8.31;100.00;102473.09;5082723;28;19923;-76
2024/01/30 06:57:56;;;;;;;;;;;;;;;8.30;100.00;102487.78;5089657;28;19920;-76
2024/01/30 07:00:22;;;;;;;;;;;;;;;8.33;100.00;102489.69;5073228;28;19921;-76
2024/01/30 07:02:47;;;;;;;;;;;;;;;8.32;100.00;102500.88;5073378;28;20378;-76
2024/01/30 07:05:13;;;;;;;;;;;;;;;8.32;100.00;102498.28;5073004;28;19975;-76
2024/01/30 07:07:38;;;;;;;;;;;;;;;8.33;100.00;102515.66;5072045;28;19912;-76
2024/01/30 07:10:04;;;;;;;;;;;;;;;8.31;100.00;102512.97;5079103;28;20015;-76
2024/01/30 07:12:30;;;;;;;;;;;;;;;8.34;100.00;102512.22;5092687;28;19920;-76
2024/01/30 07:14:56;;;;;;;;;;;;;;;8.34;100.00;102512.22;5091991;28;20579;-76
2024/01/30 07:17:21;;;;;;;;;;;;;;;8.34;100.00;102510.56;5087930;28;19965;-76
2024/01/30 07:19:46;;;;;;;;;;;;;;;8.33;100.00;102510.47;5089833;28;19920;-76
2024/01/30 07:22:12;;;;;;;;;;;;;;;8.33;100.00;102520.84;5071774;28;19920;-76
2024/01/30 07:24:41;;;;;;;;;;;;;;;8.34;100.00;102520.94;5073121;28;19987;-76
2024/01/30 07:27:07;;;;;;;;;;;;;;;8.34;100.00;102518.34;5071355;28;19920;-76
2024/01/30 07:29:32;;;;;;;;;;;;;;;8.37;100.00;102520.19;5073047;28;20302;-76
2024/01/30 07:31:57;;;;;;;;;;;;;;;8.37;100.00;102525.41;5071478;28;20385;-76
2024/01/30 07:34:22;;;;;;;;;;;;;;;8.39;100.00;102523.81;5076426;28;19916;-76
2024/01/30 07:36:48;;;;;;;;;;;;;;;8.40;100.00;102525.59;5085928;28;19936;-75
2024/01/30 07:39:13;;;;;;;;;;;;;;;8.42;100.00;102530.91;5073644;28;19974;-76
2024/01/30 07:41:38;;;;;;;;;;;;;;;8.42;100.00;102525.69;5110250;28;20308;-76
2024/01/30 07:44:03;;;;;;;;;;;;;;;8.42;100.00;102529.19;5090393;28;19966;-76
2024/01/30 07:46:28;;;;;;;;;;;;;;;8.43;100.00;102536.19;5094436;28;20011;-76
2024/01/30 07:48:55;;;;;;;;;;;;;;;8.44;100.00;102537.06;5113137;28;19981;-76
2024/01/30 07:51:20;;;;;;;;;;;;;;;8.45;100.00;102533.69;5107652;28;19977;-76
2024/01/30 07:53:52;;;;;;;;;;;;;;;8.45;100.00;102534.59;5088414;28;19916;-76
2024/01/30 07:56:17;;;;;;;;;;;;;;;8.45;100.00;102534.59;5113145;28;19946;-76
2024/01/30 07:58:42;;;;;;;;;;;;;;;8.47;100.00;102545.06;5112387;28;20499;-76
2024/01/30 08:01:08;;;;;;;;;;;;;;;8.47;100.00;102545.06;5088852;28;19958;-76
2024/01/30 08:03:34;;;;;;;;;;;;;;;8.48;100.00;102550.34;5105529;28;19912;-76
2024/01/30 08:05:59;;;;;;;;;;;;;;;8.49;100.00;102556.47;5112881;28;19953;-76
2024/01/30 08:08:25;;;;;;;;;;;;;;;8.49;100.00;102554.75;5112318;28;19920;-76
2024/01/30 08:10:50;;;;;;;;;;;;;;;8.51;100.00;102553.13;5112041;28;19915;-76
2024/01/30 08:13:16;;;;;;;;;;;;;;;8.52;100.00;102557.53;5093945;28;19916;-76
2024/01/30 08:15:41;;;;;;;;;;;;;;;8.55;100.00;102555.94;5094275;28;19918;-76
2024/01/30 08:18:07;;;;;;;;;;;;;;;8.55;100.00;102553.34;5093285;28;20542;-76
2024/01/30 08:20:32;;;;;;;;;;;;;;;8.55;100.00;102564.63;5112440;28;20344;-76
2024/01/30 08:22:57;;;;;;;;;;;;;;;8.56;100.00;102558.63;5101863;28;20331;-76
2024/01/30 08:25:22;;;;;;;;;;;;;;;8.58;100.00;102557.00;5094009;28;19920;-76
2024/01/30 08:27:48;;;;;;;;;;;;;;;8.61;100.00;102559.78;5094142;28;20385;-76
2024/01/30 08:30:13;;;;;;;;;;;;;;;8.63;100.00;102559.88;5111742;28;20362;-76
2024/01/30 08:32:39;;;;;;;;;;;;;;;8.65;100.00;102561.75;5091092;28;19920;-76
2024/01/30 08:35:04;;;;;;;;;;;;;;;8.67;100.00;102559.25;5112463;28;20004;-76
2024/01/30 08:37:30;;;;;;;;;;;;;;;8.69;100.00;102560.25;5112251;28;20340;-76
2024/01/30 08:39:55;;;;;;;;;;;;;;;8.71;100.00;102563.81;5111503;28;19942;-76
2024/01/30 08:42:22;;;;;;;;;;;;;;;8.73;100.00;102566.50;5112115;28;19933;-76
2024/01/30 08:44:47;;;;;;;;;;;;;;;8.75;100.00;102564.88;5096705;28;19939;-76
2024/01/30 08:47:13;;;;;;;;;;;;;;;8.77;100.00;102558.97;5091404;28;20348;-76
2024/01/30 08:49:38;;;;;;;;;;;;;;;8.79;100.00;102554.78;5111182;28;19968;-76
2024/01/30 08:52:03;;;;;;;;;;;;;;;8.81;100.00;102552.28;5111944;28;19912;-76
2024/01/30 08:54:29;;;;;;;;;;;;;;;8.84;100.00;102555.03;5111011;28;19968;-76
2024/01/30 08:56:56;;;;;;;;;;;;;;;8.86;100.00;102556.94;5093424;28;20328;-76
2024/01/30 08:59:21;;;;;;;;;;;;;;;8.88;100.00;102549.22;5111970;28;20244;-76
2024/01/30 09:01:47;;;;;;;;;;;;;;;8.94;100.00;102551.28;5101649;28;20581;-76
2024/01/30 09:04:12;;;;;;;;;;;;;;;8.98;100.00;102553.22;5111025;28;19942;-76
2024/01/30 09:06:39;;;;;;;;;;;;;;;9.02;100.00;102566.50;5110657;28;19916;-76
2024/01/30 09:09:04;;;;;;;;;;;;;;;9.05;100.00;102566.69;5111733;28;19961;-76
2024/01/30 09:11:30;;;;;;;;;;;;;;;9.08;100.00;102565.06;5092625;28;20366;-76
2024/01/30 09:13:55;;;;;;;;;;;;;;;9.11;100.00;102567.84;5110688;28;19911;-76
2024/01/30 09:16:20;;;;;;;;;;;;;;;9.12;100.00;102570.53;5086575;28;19920;-76
2024/01/30 09:18:45;;;;;;;;;;;;;;;9.13;100.00;102574.91;5110464;28;19927;-76
2024/01/30 09:21:11;;;;;;;;;;;;;;;9.15;100.00;102568.13;5111044;28;19915;-76
2024/01/30 09:23:36;;;;;;;;;;;;;;;9.18;100.00;102576.09;5092587;28;19924;-76
2024/01/30 09:26:01;;;;;;;;;;;;;;;9.21;100.00;102578.88;5110359;28;19924;-76
2024/01/30 09:28:26;;;;;;;;;;;;;;;9.25;100.00;102579.03;5110921;28;19916;-76
2024/01/30 09:30:52;;;;;;;;;;;;;;;9.27;100.00;102582.59;5093105;28;19919;-76
2024/01/30 09:33:17;;;;;;;;;;;;;;;9.31;100.00;102579.38;5111338;28;19920;-76
2024/01/30 09:35:42;;;;;;;;;;;;;;;9.33;100.00;102573.47;5081790;28;19923;-76
2024/01/30 09:38:07;;;;;;;;;;;;;;;9.38;100.00;102581.53;5094702;28;20405;-76
2024/01/30 09:40:33;;;;;;;;;;;;;;;9.42;100.00;102582.59;5111165;28;20335;-76
2024/01/30 09:42:59;;;;;;;;;;;;;;;9.47;100.00;102596.75;5111152;28;19919;-76
2024/01/30 09:45:25;;;;;;;;;;;;;;;9.50;100.00;102595.22;5110246;28;19916;-76
2024/01/30 09:47:50;;;;;;;;;;;;;;;9.55;100.00;102604.19;5074869;28;19924;-76
2024/01/30 09:50:16;;;;;;;;;;;;;;;9.61;100.00;102606.22;5111372;28;19911;-76
2024/01/30 09:52:42;;;;;;;;;;;;;;;9.63;100.00;102599.41;5093052;28;19916;-76
2024/01/30 09:55:07;;;;;;;;;;;;;;;9.68;100.00;102600.56;5109724;28;19980;-76
2024/01/30 09:57:33;;;;;;;;;;;;;;;9.71;100.00;102598.13;5103354;28;19920;-76
2024/01/30 09:59:59;;;;;;;;;;;;;;;9.73;100.00;102596.50;5091373;28;19962;-76
2024/01/30 10:02:24;;;;;;;;;;;;;;;9.74;100.00;102597.41;5111062;28;19955;-76
2024/01/30 10:04:50;;;;;;;;;;;;;;;9.75;100.00;102602.69;5111112;28;19969;-76
2024/01/30 10:07:15;;;;;;;;;;;;;;;9.80;100.00;102600.34;5083281;28;19959;-76
2024/01/30 10:09:41;;;;;;;;;;;;;;;9.82;100.00;102601.34;5101251;28;19915;-76
2024/01/30 10:12:06;;;;;;;;;;;;;;;9.84;100.00;102599.69;5110960;28;19912;-76
2024/01/30 10:14:31;;;;;;;;;;;;;;;9.86;100.00;102602.38;5092629;28;19918;-76
2024/01/30 10:17:01;;;;;;;;;;;;;;;9.86;100.00;102602.38;5091400;28;19993;-76
2024/01/30 10:19:26;;;;;;;;;;;;;;;9.86;100.00;102613.72;5092172;28;19919;-76
2024/01/30 10:21:51;;;;;;;;;;;;;;;9.87;100.00;102614.59;5111046;28;19916;-76
2024/01/30 10:24:17;;;;;;;;;;;;;;;9.88;100.00;102603.38;5110834;28;19919;-76
2024/01/30 10:26:45;;;;;;;;;;;;;;;9.89;100.00;102611.28;5109914;28;19991;-76
2024/01/30 10:29:10;;;;;;;;;;;;;;;9.95;100.00;102625.41;5109833;28;19995;-76
2024/01/30 10:31:35;;;;;;;;;;;;;;;9.96;100.00;102624.63;5110608;28;20022;-76
2024/01/30 10:34:01;;;;;;;;;;;;;;;9.97;100.00;102626.41;5110361;28;19998;-76
2024/01/30 10:36:28;;;;;;;;;;;;;;;10.00;100.00;102621.38;5109810;28;19919;-76
2024/01/30 10:38:55;;;;;;;;;;;;;;;10.02;100.00;102622.34;5094067;28;19967;-76
2024/01/30 10:41:23;;;;;;;;;;;;;;;10.06;100.00;102617.38;5108943;28;19912;-76
2024/01/30 10:43:57;;;;;;;;;;;;;;;10.09;100.00;102621.88;5110829;28;19938;-76
2024/01/30 10:46:25;;;;;;;;;;;;;;;10.13;100.00;102620.34;5111241;28;19966;-76
2024/01/30 10:48:54;;;;;;;;;;;;;;;10.15;100.00;102632.59;5095523;28;19924;-77
2024/01/30 10:51:20;;;;;;;;;;;;;;;10.17;100.00;102623.19;5114151;28;19955;-76
2024/01/30 10:53:46;;;;;;;;;;;;;;;10.20;100.00;102628.56;5114386;28;19951;-76
2024/01/30 10:56:12;;;;;;;;;;;;;;;10.21;100.00;102622.53;5095647;28;19912;-76
2024/01/30 10:58:37;;;;;;;;;;;;;;;10.25;100.00;102628.78;5112925;28;19935;-76
2024/01/30 11:01:03;;;;;;;;;;;;;;;10.29;100.00;102635.09;5113751;28;19922;-75
2024/01/30 11:03:29;;;;;;;;;;;;;;;10.31;100.00;102630.84;5114120;28;20293;-76
2024/01/30 11:05:59;;;;;;;;;;;;;;;10.32;100.00;102620.50;5113951;28;20373;-76
2024/01/30 11:08:25;;;;;;;;;;;;;;;10.33;100.00;102626.63;5113081;28;20006;-76
2024/01/30 11:10:54;;;;;;;;;;;;;;;10.33;100.00;102637.94;5086036;28;20423;-76
2024/01/30 11:13:19;;;;;;;;;;;;;;;10.32;100.00;102630.91;5095418;28;19919;-76
2024/01/30 11:15:47;;;;;;;;;;;;;;;10.32;100.00;102627.44;5113617;28;19915;-76
2024/01/30 11:18:22;;;;;;;;;;;;;;;10.32;100.00;102627.44;5113203;28;19919;-76
2024/01/30 11:20:48;;;;;;;;;;;;;;;10.32;100.00;102625.72;5105820;28;20396;-76
2024/01/30 11:23:13;;;;;;;;;;;;;;;10.33;100.00;102629.22;5113813;28;20009;-76
2024/01/30 11:25:39;;;;;;;;;;;;;;;10.32;100.00;102619.59;5113519;28;19912;-76
2024/01/30 11:28:04;;;;;;;;;;;;;;;10.33;100.00;102626.63;5112525;28;19915;-76
2024/01/30 11:30:32;;;;;;;;;;;;;;;10.34;100.00;102633.63;5085861;28;19920;-76
2024/01/30 11:32:58;;;;;;;;;;;;;;;10.34;100.00;102631.03;5113037;28;20467;-76
2024/01/30 11:35:24;;;;;;;;;;;;;;;10.37;100.00;102631.19;5113594;28;20007;-76
2024/01/30 11:37:49;;;;;;;;;;;;;;;10.40;100.00;102634.00;5113331;28;20303;-76
2024/01/30 11:40:14;;;;;;;;;;;;;;;10.43;100.00;102634.16;5107990;28;19962;-76
2024/01/30 11:42:40;;;;;;;;;;;;;;;10.48;100.00;102629.16;5099781;28;20293;-75
2024/01/30 11:45:05;;;;;;;;;;;;;;;10.49;100.00;102633.56;5113567;28;20285;-76
2024/01/30 11:47:31;;;;;;;;;;;;;;;10.51;100.00;102631.94;5113186;28;19916;-76
2024/01/30 11:49:56;;;;;;;;;;;;;;;10.53;100.00;102620.78;5112575;28;19916;-75
2024/01/30 11:52:22;;;;;;;;;;;;;;;10.55;100.00;102628.69;5093643;28;19916;-75
2024/01/30 11:54:47;;;;;;;;;;;;;;;10.56;100.00;102640.91;5112780;28;19967;-75
2024/01/30 11:57:12;;;;;;;;;;;;;;;10.57;100.00;102629.63;5113080;28;19919;-75
2024/01/30 11:59:37;;;;;;;;;;;;;;;10.57;100.00;102630.56;5105479;28;20070;-76
2024/01/30 12:02:03;;;;;;;;;;;;;;;10.58;100.00;102629.72;5096639;28;19916;-76
2024/01/30 12:04:29;;;;;;;;;;;;;;;10.59;100.00;102638.44;5094784;28;20361;-75
2024/01/30 12:06:54;;;;;;;;;;;;;;;10.59;100.00;102639.34;5113150;28;19918;-75
2024/01/30 12:09:19;;;;;;;;;;;;;;;10.59;100.00;102636.72;5112122;28;19915;-75
2024/01/30 12:11:45;;;;;;;;;;;;;;;10.59;100.00;102635.84;5112214;28;20346;-75
2024/01/30 12:14:11;;;;;;;;;;;;;;;10.58;100.00;102641.88;5098723;28;20356;-76
2024/01/30 12:16:36;;;;;;;;;;;;;;;10.56;100.00;102647.00;5112827;28;19915;-76
2024/01/30 12:19:02;;;;;;;;;;;;;;;10.54;100.00;102638.22;5112605;28;20354;-76
2024/01/30 12:21:28;;;;;;;;;;;;;;;10.52;100.00;102634.63;5112031;28;19916;-76
2024/01/30 12:23:53;;;;;;;;;;;;;;;10.50;100.00;102643.16;5112304;27;20491;-75
2024/01/30 12:26:18;;;;;;;;;;;;;;;10.48;100.00;102658.72;5112633;28;19912;-76